sensor_id;sensor_type;location;lat;lon;timestamp;temperature;humidity
21031;DHT22;61072;47.808;7.636;2023-06-22T05:44:30;23.30;99.90
21031;DHT22;61072;47.808;7.636;2023-06-22T05:46:56;23.40;99.90
21031;DHT22;61072;47.808;7.636;2023-06-22T05:49:23;23.40;99.90
21031;DHT22;61072;47.808;7.636;2023-06-22T05:51:56;23.40;99.90
21031;DHT22;61072;47.808;7.636;2023-06-22T05:54:23;23.50;99.90
21031;DHT22;61072;47.808;7.636;2023-06-22T05:56:50;23.50;99.90
21031;DHT22;61072;47.808;7.636;2023-06-22T05:59:16;23.50;99.90
21031;DHT22;61072;47.808;7.636;2023-06-22T06:01:43;23.60;99.90
21031;DHT22;61072;47.808;7.636;2023-06-22T06:04:10;23.60;99.90
21031;DHT22;61072;47.808;7.636;2023-06-22T06:06:37;23.60;99.90
21031;DHT22;61072;47.808;7.636;2023-06-22T06:09:04;23.60;99.90
21031;DHT22;61072;47.808;7.636;2023-06-22T06:11:31;23.60;99.90
21031;DHT22;61072;47.808;7.636;2023-06-22T06:13:58;23.60;99.90
21031;DHT22;61072;47.808;7.636;2023-06-22T06:16:25;23.60;99.90
21031;DHT22;61072;47.808;7.636;2023-06-22T06:18:51;23.60;99.90
21031;DHT22;61072;47.808;7.636;2023-06-22T06:21:20;23.60;99.90
21031;DHT22;61072;47.808;7.636;2023-06-22T06:23:46;23.60;99.90
21031;DHT22;61072;47.808;7.636;2023-06-22T06:26:13;23.70;99.90
21031;DHT22;61072;47.808;7.636;2023-06-22T06:28:43;23.70;99.90
21031;DHT22;61072;47.808;7.636;2023-06-22T06:31:10;23.80;99.90
21031;DHT22;61072;47.808;7.636;2023-06-22T06:33:38;23.90;99.90
21031;DHT22;61072;47.808;7.636;2023-06-22T06:36:05;23.90;99.90
21031;DHT22;61072;47.808;7.636;2023-06-22T06:38:34;24.00;99.90
21031;DHT22;61072;47.808;7.636;2023-06-22T06:41:01;24.10;99.90
21031;DHT22;61072;47.808;7.636;2023-06-22T06:43:28;24.10;99.90
21031;DHT22;61072;47.808;7.636;2023-06-22T06:45:55;24.10;99.90
21031;DHT22;61072;47.808;7.636;2023-06-22T06:48:21;24.10;99.90
21031;DHT22;61072;47.808;7.636;2023-06-22T06:50:48;24.10;99.90
21031;DHT22;61072;47.808;7.636;2023-06-22T06:53:15;24.10;99.90
21031;DHT22;61072;47.808;7.636;2023-06-22T06:55:42;24.10;99.90
21031;DHT22;61072;47.808;7.636;2023-06-22T06:58:08;24.20;99.90
21031;DHT22;61072;47.808;7.636;2023-06-22T07:00:36;24.20;99.90
21031;DHT22;61072;47.808;7.636;2023-06-22T07:03:03;24.30;99.90
21031;DHT22;61072;47.808;7.636;2023-06-22T07:05:30;24.30;99.90
21031;DHT22;61072;47.808;7.636;2023-06-22T07:07:57;24.30;99.90
21031;DHT22;61072;47.808;7.636;2023-06-22T07:10:24;24.30;99.90
21031;DHT22;61072;47.808;7.636;2023-06-22T07:12:51;24.30;99.90
21031;DHT22;61072;47.808;7.636;2023-06-22T07:15:18;24.30;99.90
21031;DHT22;61072;47.808;7.636;2023-06-22T07:17:45;24.30;99.90
21031;DHT22;61072;47.808;7.636;2023-06-22T07:20:12;24.20;99.90
21031;DHT22;61072;47.808;7.636;2023-06-22T07:22:40;24.10;99.90
21031;DHT22;61072;47.808;7.636;2023-06-22T07:25:07;24.00;99.90
21031;DHT22;61072;47.808;7.636;2023-06-22T07:27:57;24.00;99.90
21031;DHT22;61072;47.808;7.636;2023-06-22T07:30:25;24.00;99.90
21031;DHT22;61072;47.808;7.636;2023-06-22T07:32:51;24.00;99.90
21031;DHT22;61072;47.808;7.636;2023-06-22T07:35:18;24.00;99.90
21031;DHT22;61072;47.808;7.636;2023-06-22T07:37:45;24.10;99.90
21031;DHT22;61072;47.808;7.636;2023-06-22T07:40:12;24.20;99.90
21031;DHT22;61072;47.808;7.636;2023-06-22T07:42:39;24.30;99.90
21031;DHT22;61072;47.808;7.636;2023-06-22T07:45:07;24.50;99.90
21031;DHT22;61072;47.808;7.636;2023-06-22T07:47:35;24.60;99.90
21031;DHT22;61072;47.808;7.636;2023-06-22T07:50:03;24.70;99.90
21031;DHT22;61072;47.808;7.636;2023-06-22T07:52:30;24.80;99.90
21031;DHT22;61072;47.808;7.636;2023-06-22T07:54:57;24.90;99.90
21031;DHT22;61072;47.808;7.636;2023-06-22T07:57:24;25.00;99.90
21031;DHT22;61072;47.808;7.636;2023-06-22T08:00:00;25.10;99.90
21031;DHT22;61072;47.808;7.636;2023-06-22T08:02:27;25.20;99.90
21031;DHT22;61072;47.808;7.636;2023-06-22T08:04:54;25.30;99.90
21031;DHT22;61072;47.808;7.636;2023-06-22T08:07:40;25.40;99.90
21031;DHT22;61072;47.808;7.636;2023-06-22T08:10:11;25.60;99.90
21031;DHT22;61072;47.808;7.636;2023-06-22T08:12:39;25.70;99.90
21031;DHT22;61072;47.808;7.636;2023-06-22T08:15:06;25.80;99.90
21031;DHT22;61072;47.808;7.636;2023-06-22T08:17:34;25.80;99.90
21031;DHT22;61072;47.808;7.636;2023-06-22T08:20:01;25.90;99.90
21031;DHT22;61072;47.808;7.636;2023-06-22T08:22:29;26.00;99.90
21031;DHT22;61072;47.808;7.636;2023-06-22T08:24:56;26.00;99.90
21031;DHT22;61072;47.808;7.636;2023-06-22T08:27:23;26.10;99.90
21031;DHT22;61072;47.808;7.636;2023-06-22T08:29:50;26.10;99.90
21031;DHT22;61072;47.808;7.636;2023-06-22T08:32:18;26.10;99.90
21031;DHT22;61072;47.808;7.636;2023-06-22T08:34:45;26.20;99.90
21031;DHT22;61072;47.808;7.636;2023-06-22T08:37:11;26.20;99.90
21031;DHT22;61072;47.808;7.636;2023-06-22T08:39:38;26.20;99.90
21031;DHT22;61072;47.808;7.636;2023-06-22T08:42:06;26.20;99.90
21031;DHT22;61072;47.808;7.636;2023-06-22T08:44:32;26.20;99.90
21031;DHT22;61072;47.808;7.636;2023-06-22T08:46:59;26.30;99.90
21031;DHT22;61072;47.808;7.636;2023-06-22T08:49:26;26.20;99.90
21031;DHT22;61072;47.808;7.636;2023-06-22T08:51:52;26.20;99.90
21031;DHT22;61072;47.808;7.636;2023-06-22T08:54:22;26.20;99.90
21031;DHT22;61072;47.808;7.636;2023-06-22T08:56:49;26.20;99.90
21031;DHT22;61072;47.808;7.636;2023-06-22T08:59:16;26.30;99.90
21031;DHT22;61072;47.808;7.636;2023-06-22T09:01:42;26.20;99.90
21031;DHT22;61072;47.808;7.636;2023-06-22T09:04:12;26.30;99.90
21031;DHT22;61072;47.808;7.636;2023-06-22T09:06:39;26.30;99.90
21031;DHT22;61072;47.808;7.636;2023-06-22T09:09:12;26.40;99.90
21031;DHT22;61072;47.808;7.636;2023-06-22T09:11:39;26.50;99.90
21031;DHT22;61072;47.808;7.636;2023-06-22T09:14:06;26.70;99.90
21031;DHT22;61072;47.808;7.636;2023-06-22T09:16:34;26.80;99.90
21031;DHT22;61072;47.808;7.636;2023-06-22T09:19:01;27.00;99.90
21031;DHT22;61072;47.808;7.636;2023-06-22T09:21:27;27.10;99.90
21031;DHT22;61072;47.808;7.636;2023-06-22T09:23:54;27.10;99.90
21031;DHT22;61072;47.808;7.636;2023-06-22T09:26:21;27.20;99.90
21031;DHT22;61072;47.808;7.636;2023-06-22T09:28:50;27.20;99.90
21031;DHT22;61072;47.808;7.636;2023-06-22T09:31:16;27.20;99.90
21031;DHT22;61072;47.808;7.636;2023-06-22T09:33:43;27.30;99.90
21031;DHT22;61072;47.808;7.636;2023-06-22T09:36:10;27.30;99.90
21031;DHT22;61072;47.808;7.636;2023-06-22T09:38:38;27.40;99.90
21031;DHT22;61072;47.808;7.636;2023-06-22T09:41:04;27.40;99.90
21031;DHT22;61072;47.808;7.636;2023-06-22T09:43:32;27.50;99.90
21031;DHT22;61072;47.808;7.636;2023-06-22T09:45:59;27.70;99.90
21031;DHT22;61072;47.808;7.636;2023-06-22T09:48:25;27.80;99.90
21031;DHT22;61072;47.808;7.636;2023-06-22T09:50:52;27.80;99.90
21031;DHT22;61072;47.808;7.636;2023-06-22T09:53:19;28.00;99.90
21031;DHT22;61072;47.808;7.636;2023-06-22T09:55:46;28.10;99.90
21031;DHT22;61072;47.808;7.636;2023-06-22T09:58:13;28.10;99.90
21031;DHT22;61072;47.808;7.636;2023-06-22T10:00:40;28.20;99.90
21031;DHT22;61072;47.808;7.636;2023-06-22T10:03:07;28.30;99.90
21031;DHT22;61072;47.808;7.636;2023-06-22T10:05:35;28.30;99.90
21031;DHT22;61072;47.808;7.636;2023-06-22T10:08:02;28.40;99.90
21031;DHT22;61072;47.808;7.636;2023-06-22T10:10:29;28.40;99.90
21031;DHT22;61072;47.808;7.636;2023-06-22T10:12:57;28.40;99.90
21031;DHT22;61072;47.808;7.636;2023-06-22T10:15:24;28.50;99.90
21031;DHT22;61072;47.808;7.636;2023-06-22T10:17:51;28.50;99.90
21031;DHT22;61072;47.808;7.636;2023-06-22T10:20:18;28.60;99.90
21031;DHT22;61072;47.808;7.636;2023-06-22T10:22:45;28.60;99.90
21031;DHT22;61072;47.808;7.636;2023-06-22T10:25:12;28.60;99.90
21031;DHT22;61072;47.808;7.636;2023-06-22T10:27:40;28.60;99.90
21031;DHT22;61072;47.808;7.636;2023-06-22T10:30:10;28.60;99.90
21031;DHT22;61072;47.808;7.636;2023-06-22T10:32:40;28.60;99.90
21031;DHT22;61072;47.808;7.636;2023-06-22T10:35:08;28.60;99.90
21031;DHT22;61072;47.808;7.636;2023-06-22T10:37:35;28.60;99.90
21031;DHT22;61072;47.808;7.636;2023-06-22T10:40:03;28.50;99.90
21031;DHT22;61072;47.808;7.636;2023-06-22T10:42:30;28.60;99.90
21031;DHT22;61072;47.808;7.636;2023-06-22T10:44:57;28.60;99.90
21031;DHT22;61072;47.808;7.636;2023-06-22T10:47:24;28.70;99.90
21031;DHT22;61072;47.808;7.636;2023-06-22T10:49:50;28.70;99.90
21031;DHT22;61072;47.808;7.636;2023-06-22T10:52:17;28.80;99.90
21031;DHT22;61072;47.808;7.636;2023-06-22T10:54:44;28.90;99.90
21031;DHT22;61072;47.808;7.636;2023-06-22T10:57:10;28.90;99.90
21031;DHT22;61072;47.808;7.636;2023-06-22T10:59:37;29.00;99.90
21031;DHT22;61072;47.808;7.636;2023-06-22T11:02:04;29.00;99.90
21031;DHT22;61072;47.808;7.636;2023-06-22T11:04:31;29.10;99.90
21031;DHT22;61072;47.808;7.636;2023-06-22T11:06:58;29.20;99.90
21031;DHT22;61072;47.808;7.636;2023-06-22T11:09:25;29.30;99.90
21031;DHT22;61072;47.808;7.636;2023-06-22T11:11:55;29.30;99.90
21031;DHT22;61072;47.808;7.636;2023-06-22T11:14:22;29.30;99.90
21031;DHT22;61072;47.808;7.636;2023-06-22T11:16:49;29.40;99.90
21031;DHT22;61072;47.808;7.636;2023-06-22T11:19:16;29.40;99.90
21031;DHT22;61072;47.808;7.636;2023-06-22T11:21:43;29.40;99.90
21031;DHT22;61072;47.808;7.636;2023-06-22T11:24:10;29.40;99.90
21031;DHT22;61072;47.808;7.636;2023-06-22T11:26:37;29.40;99.90
21031;DHT22;61072;47.808;7.636;2023-06-22T11:29:03;29.40;99.90
21031;DHT22;61072;47.808;7.636;2023-06-22T11:31:35;29.50;99.90
21031;DHT22;61072;47.808;7.636;2023-06-22T11:34:02;29.50;99.90
21031;DHT22;61072;47.808;7.636;2023-06-22T11:36:29;29.60;99.90
21031;DHT22;61072;47.808;7.636;2023-06-22T11:38:59;29.70;99.90
21031;DHT22;61072;47.808;7.636;2023-06-22T11:41:26;29.70;99.90
21031;DHT22;61072;47.808;7.636;2023-06-22T11:43:52;29.70;99.90
21031;DHT22;61072;47.808;7.636;2023-06-22T11:46:19;29.60;99.90
21031;DHT22;61072;47.808;7.636;2023-06-22T11:48:47;29.70;99.90
21031;DHT22;61072;47.808;7.636;2023-06-22T11:51:13;29.70;99.90
21031;DHT22;61072;47.808;7.636;2023-06-22T11:53:40;29.70;99.90
21031;DHT22;61072;47.808;7.636;2023-06-22T11:56:07;29.80;99.90
21031;DHT22;61072;47.808;7.636;2023-06-22T11:58:36;29.70;99.90
21031;DHT22;61072;47.808;7.636;2023-06-22T12:01:03;29.70;99.90
21031;DHT22;61072;47.808;7.636;2023-06-22T12:03:29;29.50;99.90
21031;DHT22;61072;47.808;7.636;2023-06-22T12:05:57;29.20;99.90
21031;DHT22;61072;47.808;7.636;2023-06-22T12:08:24;29.00;99.90
21031;DHT22;61072;47.808;7.636;2023-06-22T12:10:51;28.80;99.90
21031;DHT22;61072;47.808;7.636;2023-06-22T12:13:18;28.70;99.90
21031;DHT22;61072;47.808;7.636;2023-06-22T12:15:45;28.50;99.90
21031;DHT22;61072;47.808;7.636;2023-06-22T12:18:12;28.40;99.90
21031;DHT22;61072;47.808;7.636;2023-06-22T12:20:41;28.30;99.90
21031;DHT22;61072;47.808;7.636;2023-06-22T12:23:07;28.30;99.90
21031;DHT22;61072;47.808;7.636;2023-06-22T12:25:34;28.20;99.90
21031;DHT22;61072;47.808;7.636;2023-06-22T12:28:01;28.20;99.90
21031;DHT22;61072;47.808;7.636;2023-06-22T12:30:28;28.20;99.90
21031;DHT22;61072;47.808;7.636;2023-06-22T12:32:55;28.20;99.90
21031;DHT22;61072;47.808;7.636;2023-06-22T12:35:22;28.30;99.90
21031;DHT22;61072;47.808;7.636;2023-06-22T12:37:49;28.30;99.90
21031;DHT22;61072;47.808;7.636;2023-06-22T12:40:16;28.30;99.90
21031;DHT22;61072;47.808;7.636;2023-06-22T12:42:44;28.30;99.90
21031;DHT22;61072;47.808;7.636;2023-06-22T12:45:11;28.40;99.90
21031;DHT22;61072;47.808;7.636;2023-06-22T12:47:37;28.30;99.90
21031;DHT22;61072;47.808;7.636;2023-06-22T12:50:05;28.40;99.90
21031;DHT22;61072;47.808;7.636;2023-06-22T12:52:32;28.40;99.90
21031;DHT22;61072;47.808;7.636;2023-06-22T12:54:59;28.50;99.90
21031;DHT22;61072;47.808;7.636;2023-06-22T12:57:25;28.50;99.90
21031;DHT22;61072;47.808;7.636;2023-06-22T12:59:52;28.50;99.90
21031;DHT22;61072;47.808;7.636;2023-06-22T13:02:19;28.50;99.90
21031;DHT22;61072;47.808;7.636;2023-06-22T13:04:46;28.50;99.90
21031;DHT22;61072;47.808;7.636;2023-06-22T13:07:12;28.60;99.90
21031;DHT22;61072;47.808;7.636;2023-06-22T13:09:50;28.50;99.90
21031;DHT22;61072;47.808;7.636;2023-06-22T13:12:20;28.50;99.90
21031;DHT22;61072;47.808;7.636;2023-06-22T13:14:47;28.50;99.90
21031;DHT22;61072;47.808;7.636;2023-06-22T13:17:14;28.50;99.90
21031;DHT22;61072;47.808;7.636;2023-06-22T13:19:42;28.50;99.90
21031;DHT22;61072;47.808;7.636;2023-06-22T13:22:30;28.60;99.90
21031;DHT22;61072;47.808;7.636;2023-06-22T13:24:58;28.60;99.90
21031;DHT22;61072;47.808;7.636;2023-06-22T13:27:25;28.60;99.90
21031;DHT22;61072;47.808;7.636;2023-06-22T13:29:53;28.60;99.90
21031;DHT22;61072;47.808;7.636;2023-06-22T13:32:20;28.60;99.90
21031;DHT22;61072;47.808;7.636;2023-06-22T13:34:47;28.50;99.90
21031;DHT22;61072;47.808;7.636;2023-06-22T13:37:14;28.50;99.90
21031;DHT22;61072;47.808;7.636;2023-06-22T13:39:41;28.40;99.90
21031;DHT22;61072;47.808;7.636;2023-06-22T13:42:08;28.30;99.90
21031;DHT22;61072;47.808;7.636;2023-06-22T13:44:34;28.30;99.90
21031;DHT22;61072;47.808;7.636;2023-06-22T13:47:01;28.10;99.90
21031;DHT22;61072;47.808;7.636;2023-06-22T13:49:28;28.20;99.90
21031;DHT22;61072;47.808;7.636;2023-06-22T13:51:55;28.10;99.90
21031;DHT22;61072;47.808;7.636;2023-06-22T13:54:22;28.20;99.90
21031;DHT22;61072;47.808;7.636;2023-06-22T13:56:51;28.20;99.90
21031;DHT22;61072;47.808;7.636;2023-06-22T13:59:18;28.20;99.90
21031;DHT22;61072;47.808;7.636;2023-06-22T14:01:46;28.20;99.90
21031;DHT22;61072;47.808;7.636;2023-06-22T14:04:13;28.30;99.90
21031;DHT22;61072;47.808;7.636;2023-06-22T14:06:40;28.20;99.90
21031;DHT22;61072;47.808;7.636;2023-06-22T14:09:07;28.20;99.90
21031;DHT22;61072;47.808;7.636;2023-06-22T14:11:33;28.20;99.90
21031;DHT22;61072;47.808;7.636;2023-06-22T14:14:00;28.20;99.90
21031;DHT22;61072;47.808;7.636;2023-06-22T14:16:27;28.20;99.90
21031;DHT22;61072;47.808;7.636;2023-06-22T14:18:53;28.30;99.90
21031;DHT22;61072;47.808;7.636;2023-06-22T14:21:24;28.30;99.90
21031;DHT22;61072;47.808;7.636;2023-06-22T14:23:50;28.30;99.90
21031;DHT22;61072;47.808;7.636;2023-06-22T14:26:18;28.30;99.90
21031;DHT22;61072;47.808;7.636;2023-06-22T14:28:48;28.30;99.90
21031;DHT22;61072;47.808;7.636;2023-06-22T14:31:18;28.40;99.90
21031;DHT22;61072;47.808;7.636;2023-06-22T14:33:46;28.50;99.90
21031;DHT22;61072;47.808;7.636;2023-06-22T14:36:14;28.60;99.90
21031;DHT22;61072;47.808;7.636;2023-06-22T14:38:46;28.60;99.90
21031;DHT22;61072;47.808;7.636;2023-06-22T14:41:13;28.70;99.90
21031;DHT22;61072;47.808;7.636;2023-06-22T14:43:46;28.70;99.90
21031;DHT22;61072;47.808;7.636;2023-06-22T14:46:18;28.70;99.90
21031;DHT22;61072;47.808;7.636;2023-06-22T14:48:45;28.70;99.90
21031;DHT22;61072;47.808;7.636;2023-06-22T14:51:12;28.80;99.90
21031;DHT22;61072;47.808;7.636;2023-06-22T14:53:44;28.80;99.90
21031;DHT22;61072;47.808;7.636;2023-06-22T14:56:12;28.90;99.90
21031;DHT22;61072;47.808;7.636;2023-06-22T14:58:41;28.90;99.90
21031;DHT22;61072;47.808;7.636;2023-06-22T15:01:12;29.00;99.90
21031;DHT22;61072;47.808;7.636;2023-06-22T15:03:39;29.10;99.90
21031;DHT22;61072;47.808;7.636;2023-06-22T15:06:08;29.10;99.90
21031;DHT22;61072;47.808;7.636;2023-06-22T15:08:40;29.20;99.90
21031;DHT22;61072;47.808;7.636;2023-06-22T15:11:07;29.20;99.90
21031;DHT22;61072;47.808;7.636;2023-06-22T15:13:34;29.20;99.90
21031;DHT22;61072;47.808;7.636;2023-06-22T15:16:02;29.30;99.90
21031;DHT22;61072;47.808;7.636;2023-06-22T15:18:30;29.30;99.90
21031;DHT22;61072;47.808;7.636;2023-06-22T15:20:57;29.30;99.90
21031;DHT22;61072;47.808;7.636;2023-06-22T15:23:25;29.30;99.90
21031;DHT22;61072;47.808;7.636;2023-06-22T15:25:52;29.20;99.90
21031;DHT22;61072;47.808;7.636;2023-06-22T15:28:19;29.20;99.90
21031;DHT22;61072;47.808;7.636;2023-06-22T15:30:51;29.10;99.90
21031;DHT22;61072;47.808;7.636;2023-06-22T15:33:18;29.20;99.90
21031;DHT22;61072;47.808;7.636;2023-06-22T15:35:45;29.10;99.90
21031;DHT22;61072;47.808;7.636;2023-06-22T15:38:12;29.20;99.90
21031;DHT22;61072;47.808;7.636;2023-06-22T15:40:39;29.20;99.90
21031;DHT22;61072;47.808;7.636;2023-06-22T15:43:05;29.20;99.90
21031;DHT22;61072;47.808;7.636;2023-06-22T15:45:32;29.20;99.90
21031;DHT22;61072;47.808;7.636;2023-06-22T15:47:59;29.20;99.90
21031;DHT22;61072;47.808;7.636;2023-06-22T15:50:26;29.30;99.90
21031;DHT22;61072;47.808;7.636;2023-06-22T15:52:53;29.30;99.90
21031;DHT22;61072;47.808;7.636;2023-06-22T15:55:19;29.30;99.90
21031;DHT22;61072;47.808;7.636;2023-06-22T15:57:46;29.30;99.90
21031;DHT22;61072;47.808;7.636;2023-06-22T16:00:17;29.30;99.90
21031;DHT22;61072;47.808;7.636;2023-06-22T16:02:45;29.20;99.90
21031;DHT22;61072;47.808;7.636;2023-06-22T16:05:13;29.20;99.90
21031;DHT22;61072;47.808;7.636;2023-06-22T16:07:40;29.20;99.90
21031;DHT22;61072;47.808;7.636;2023-06-22T16:10:07;29.20;99.90
21031;DHT22;61072;47.808;7.636;2023-06-22T16:12:35;29.10;99.90
21031;DHT22;61072;47.808;7.636;2023-06-22T16:15:03;29.00;99.90
21031;DHT22;61072;47.808;7.636;2023-06-22T16:17:30;28.90;99.90
21031;DHT22;61072;47.808;7.636;2023-06-22T16:19:56;28.80;99.90
21031;DHT22;61072;47.808;7.636;2023-06-22T16:22:26;28.70;99.90
21031;DHT22;61072;47.808;7.636;2023-06-22T16:24:52;28.60;99.90
21031;DHT22;61072;47.808;7.636;2023-06-22T16:27:22;28.60;99.90
21031;DHT22;61072;47.808;7.636;2023-06-22T16:29:51;28.60;99.90
21031;DHT22;61072;47.808;7.636;2023-06-22T16:32:17;28.60;99.90
21031;DHT22;61072;47.808;7.636;2023-06-22T16:34:44;28.70;99.90
21031;DHT22;61072;47.808;7.636;2023-06-22T16:37:14;28.70;99.90
21031;DHT22;61072;47.808;7.636;2023-06-22T16:39:41;28.80;99.90
21031;DHT22;61072;47.808;7.636;2023-06-22T16:42:08;28.90;99.90
21031;DHT22;61072;47.808;7.636;2023-06-22T16:44:35;28.90;99.90
21031;DHT22;61072;47.808;7.636;2023-06-22T16:47:03;29.00;99.90
21031;DHT22;61072;47.808;7.636;2023-06-22T16:49:31;29.00;99.90
21031;DHT22;61072;47.808;7.636;2023-06-22T16:51:58;29.00;99.90
21031;DHT22;61072;47.808;7.636;2023-06-22T16:54:31;29.00;99.90
21031;DHT22;61072;47.808;7.636;2023-06-22T16:57:00;29.00;99.90
21031;DHT22;61072;47.808;7.636;2023-06-22T16:59:28;28.90;99.90
21031;DHT22;61072;47.808;7.636;2023-06-22T17:01:56;28.90;99.90
21031;DHT22;61072;47.808;7.636;2023-06-22T17:04:25;28.80;99.90
21031;DHT22;61072;47.808;7.636;2023-06-22T17:07:04;28.80;99.90
21031;DHT22;61072;47.808;7.636;2023-06-22T17:09:34;28.70;99.90
21031;DHT22;61072;47.808;7.636;2023-06-22T17:12:02;28.60;99.90
21031;DHT22;61072;47.808;7.636;2023-06-22T17:14:30;28.50;99.90
21031;DHT22;61072;47.808;7.636;2023-06-22T17:16:57;28.40;99.90
21031;DHT22;61072;47.808;7.636;2023-06-22T17:19:24;28.30;99.90
21031;DHT22;61072;47.808;7.636;2023-06-22T17:21:51;28.20;99.90
21031;DHT22;61072;47.808;7.636;2023-06-22T17:24:18;28.10;99.90
21031;DHT22;61072;47.808;7.636;2023-06-22T17:26:46;28.00;99.90
21031;DHT22;61072;47.808;7.636;2023-06-22T17:29:13;28.00;99.90
21031;DHT22;61072;47.808;7.636;2023-06-22T17:31:41;27.80;99.90
21031;DHT22;61072;47.808;7.636;2023-06-22T17:34:12;27.80;99.90
21031;DHT22;61072;47.808;7.636;2023-06-22T17:36:46;27.70;99.90
21031;DHT22;61072;47.808;7.636;2023-06-22T17:39:16;27.60;99.90
21031;DHT22;61072;47.808;7.636;2023-06-22T17:41:45;27.50;99.90
21031;DHT22;61072;47.808;7.636;2023-06-22T17:44:13;26.90;99.90
21031;DHT22;61072;47.808;7.636;2023-06-22T17:46:44;26.30;99.90
21031;DHT22;61072;47.808;7.636;2023-06-22T17:49:12;25.50;99.90
21031;DHT22;61072;47.808;7.636;2023-06-22T17:51:44;25.20;99.90
21031;DHT22;61072;47.808;7.636;2023-06-22T17:54:11;24.80;99.90
21031;DHT22;61072;47.808;7.636;2023-06-22T17:56:38;24.50;99.90
21031;DHT22;61072;47.808;7.636;2023-06-22T17:59:05;24.10;99.90
21031;DHT22;61072;47.808;7.636;2023-06-22T18:01:35;24.10;99.90
21031;DHT22;61072;47.808;7.636;2023-06-22T18:04:11;24.00;99.90
21031;DHT22;61072;47.808;7.636;2023-06-22T18:06:43;23.80;99.90
21031;DHT22;61072;47.808;7.636;2023-06-22T18:09:12;23.70;99.90
21031;DHT22;61072;47.808;7.636;2023-06-22T18:14:06;23.50;99.90
21031;DHT22;61072;47.808;7.636;2023-06-22T18:16:34;23.40;99.90
21031;DHT22;61072;47.808;7.636;2023-06-22T18:19:03;23.40;99.90
21031;DHT22;61072;47.808;7.636;2023-06-22T18:21:30;23.30;99.90
21031;DHT22;61072;47.808;7.636;2023-06-22T18:23:57;23.30;99.90
21031;DHT22;61072;47.808;7.636;2023-06-22T18:26:26;23.30;99.90
21031;DHT22;61072;47.808;7.636;2023-06-22T18:28:54;23.20;99.90
21031;DHT22;61072;47.808;7.636;2023-06-22T18:31:23;23.00;99.90
21031;DHT22;61072;47.808;7.636;2023-06-22T18:33:52;23.00;99.90
21031;DHT22;61072;47.808;7.636;2023-06-22T18:36:35;22.80;99.90
21031;DHT22;61072;47.808;7.636;2023-06-22T18:39:04;22.70;99.90
21031;DHT22;61072;47.808;7.636;2023-06-22T18:41:38;22.70;99.90
21031;DHT22;61072;47.808;7.636;2023-06-22T18:44:25;22.70;99.90
21031;DHT22;61072;47.808;7.636;2023-06-22T18:46:57;22.70;99.90
21031;DHT22;61072;47.808;7.636;2023-06-22T18:49:25;22.70;99.90
21031;DHT22;61072;47.808;7.636;2023-06-22T18:54:38;22.60;99.90
21031;DHT22;61072;47.808;7.636;2023-06-22T18:57:25;22.60;99.90
21031;DHT22;61072;47.808;7.636;2023-06-22T18:59:59;22.50;99.90
21031;DHT22;61072;47.808;7.636;2023-06-22T19:02:43;22.60;99.90
21031;DHT22;61072;47.808;7.636;2023-06-22T19:15:40;22.60;99.90
21031;DHT22;61072;47.808;7.636;2023-06-22T19:20:47;22.50;99.90
21031;DHT22;61072;47.808;7.636;2023-06-22T19:23:43;22.40;99.90
21031;DHT22;61072;47.808;7.636;2023-06-22T19:26:12;22.50;99.90
21031;DHT22;61072;47.808;7.636;2023-06-22T19:28:46;22.40;99.90
21031;DHT22;61072;47.808;7.636;2023-06-22T19:31:14;22.30;99.90
21031;DHT22;61072;47.808;7.636;2023-06-22T19:33:42;22.40;99.90
21031;DHT22;61072;47.808;7.636;2023-06-22T19:36:09;22.40;99.90
21031;DHT22;61072;47.808;7.636;2023-06-22T19:38:39;22.40;99.90
21031;DHT22;61072;47.808;7.636;2023-06-22T19:41:08;22.40;99.90
21031;DHT22;61072;47.808;7.636;2023-06-22T19:43:35;22.40;99.90
21031;DHT22;61072;47.808;7.636;2023-06-22T19:46:02;22.40;99.90
21031;DHT22;61072;47.808;7.636;2023-06-22T19:48:30;22.40;99.90
21031;DHT22;61072;47.808;7.636;2023-06-22T19:51:04;22.40;99.90
21031;DHT22;61072;47.808;7.636;2023-06-22T19:53:34;22.40;99.90
21031;DHT22;61072;47.808;7.636;2023-06-22T19:56:00;22.40;99.90
21031;DHT22;61072;47.808;7.636;2023-06-22T19:58:31;22.40;99.90
21031;DHT22;61072;47.808;7.636;2023-06-22T20:00:59;22.40;99.90
21031;DHT22;61072;47.808;7.636;2023-06-22T20:06:07;22.30;99.90
21031;DHT22;61072;47.808;7.636;2023-06-22T20:08:45;22.30;99.90
21031;DHT22;61072;47.808;7.636;2023-06-22T20:11:13;22.30;99.90
21031;DHT22;61072;47.808;7.636;2023-06-22T20:13:46;22.30;99.90
21031;DHT22;61072;47.808;7.636;2023-06-22T20:16:14;22.30;99.90
21031;DHT22;61072;47.808;7.636;2023-06-22T20:18:43;22.20;99.90
21031;DHT22;61072;47.808;7.636;2023-06-22T20:21:11;22.20;99.90
21031;DHT22;61072;47.808;7.636;2023-06-22T20:23:40;22.20;99.90
21031;DHT22;61072;47.808;7.636;2023-06-22T20:26:11;22.20;99.90
21031;DHT22;61072;47.808;7.636;2023-06-22T20:28:38;22.20;99.90
21031;DHT22;61072;47.808;7.636;2023-06-22T20:31:09;22.20;99.90
21031;DHT22;61072;47.808;7.636;2023-06-22T20:33:37;22.20;99.90
21031;DHT22;61072;47.808;7.636;2023-06-22T20:36:07;22.20;99.90
